Tiempo atmosférico en la estación meteorológica de Bielsa, Huesca (990 m.)



Fecha
DESCASC
Temp. máxima en grados centígrados (hora)
DESCASC
Temp. mínima en grados centígrados (hora)
DESCASC
Temp. media en grados centígrados
DESCASC
Racha de viento máxima en m/sg (hora)
DESCASC
Velocidad máxima media en intervalos de 10 minutos(hora)
DESCASC
Precipitaciones diarias en mm
DESCASC
Precipitaciones de 00:00 a 06:00 en mm
DESCASC
Precipitaciones de 06:00 a 12:00 en mm
DESCASC
Precipitaciones de 12:00 a 18:00 en mm
DESCASC
Precipitaciones de 18:00 a 24:00 en mm
DESCASC
22-04-2019 16.4 (15:30) 4.3 (05:30) 10.3 6.39 (19:50) 2.5 (19:20) 0 0 0 0 0
21-04-2019 13.6 (16:30) 5.6 (07:20) 9.6 5.28 (04:30) 1.94 (16:30) 1 0.8 0.2 0 0
20-04-2019 20 (14:00) 4 (06:50) 12 9.17 (12:40) 4.44 (12:30) 2.2 0 0 1 1.2
19-04-2019 20 (17:20) 7.3 (07:10) 13.7 7.78 (17:10) 3.33 (09:20) 0 0 0 0 0
18-04-2019 18 (15:30) 6.6 (00:00) 12.3 9.44 (10:40) 4.17 (10:40) 0 0 0 0 0
17-04-2019 20.9 (15:40) 6.1 (00:00) 13.5 9.72 (13:10) 3.89 (14:30) 0 0 0 0 0
16-04-2019 17.8 (15:40) 7 (00:00) 12.4 9.44 (14:30) 4.17 (13:10) 2.2 2.2 0 0 0
15-04-2019 19.8 (15:30) 4.8 (00:00) 12.3 13.33 (21:20) 4.72 (13:10) 12.4 0 0 0 12.4
14-04-2019 18.3 (12:30) 2.5 (00:00) 10.4 12.5 (09:20) 6.11 (09:20) 0 0 0 0 0
13-04-2019 18.9 (15:20) -0.8 (-00:0) 9 9.72 (16:30) 4.72 (01:10) 0 0 0 0 0
12-04-2019 15.2 (15:30) 3.6 (00:00) 9.4 15.28 (15:50) 6.11 (12:40) 0 0 0 0 0
11-04-2019 12 (13:40) 3.8 (00:00) 7.9 13.33 (01:20) 5.83 (09:00) 0 0 0 0 0
10-04-2019 13.8 (15:40) 1.8 (00:00) 7.8 11.39 (14:30) 6.11 (14:30) 0 0 0 0 0
09-04-2019 16.7 (14:50) 1.8 (00:00) 9.3 10.28 (17:50) 5.56 (17:50) 0 0 0 0 0
08-04-2019 15.5 (14:20) 0.3 (00:00) 7.9 7.5 (16:00) 3.06 (14:50) 0 0 0 0 0
07-04-2019 13.2 (14:50) -0.2 (00:00) 6.5 8.61 (16:00) 3.61 (15:30) 0.2 0.2 0 0 0
06-04-2019 10 (16:00) 0.3 (00:00) 5.2 9.17 (13:00) 4.17 (17:10) 18.6 2 6 7.4 3.2
05-04-2019 7.7 (15:20) 0.3 (00:00) 4 7.5 (13:30) 3.06 (14:10) 9 0 0 1 8
04-04-2019 12.2 (16:20) -3.5 (-00:0) 4.3 8.33 (14:50) 3.06 (19:20) 0 0 0 0 0
03-04-2019 8.3 (17:10) -0.7 (-00:0) 3.8 9.44 (15:00) 3.89 (17:40) 9.4 2.2 6 1.2 0
02-04-2019 14.8 (12:20) 3.2 (00:00) 9 6.94 (15:00) 2.78 (15:00) 1.8 0.8 0.2 0.8 0
01-04-2019 12.7 (16:50) 5.2 (00:00) 8.9 8.06 (17:30) 3.89 (17:30) 0.8 0 0.2 0.2 0.4
31-03-2019 16.2 (14:50) 0 (00:00) 8.1 8.61 (15:30) 3.89 (15:30) 0 0 0 0 0
30-03-2019 17.7 (14:30) -0.3 (00:00) 8.7 8.61 (12:10) 3.61 (12:40) 0 0 0 0 0
29-03-2019 13.6 (16:30) 2.2 (00:00) 7.9 8.33 (11:40) 2.78 (12:30) 0 0 0 0 0
28-03-2019 18.1 (15:20) -1.5 (-00:0) 8.3 9.44 (12:50) 3.61 (13:00) 0 0 0 0 0
27-03-2019 17 (15:20) -1.4 (-00:0) 7.8 15 (12:10) 7.22 (12:10) 0 0 0 0 0
26-03-2019 15.8 (14:30) 4.6 (00:00) 10.2 19.72 (09:10) 9.44 (10:10) 0 0 0 0 0
25-03-2019 17.4 (12:00) 1.9 (00:00) 9.6 13.33 (13:20) 6.67 (12:40) 0 0 0 0 0

Gráficas

Temp. máximas Temp. mínimas Temp. medias Precipitaciones Rachas de viento máximas Velocidades máximas media en intervalos de 10 minutos

Datos horarios

Fecha y hora oficial Temperatura (ºC) Velocidad del viento (km/h) Dirección del viento Racha (km/h) Dirección de racha Precipitación (mm) Presión (hPa) Tendencia (hPa) Humedad (%)
2019-04-23 23:00:00 3.6 2 Sudeste 22 Norte 0.2 888.5 1.8 92
2019-04-23 22:00:00 3.8 7 Norte 23 Noroeste 3.4 888.6 2.6 92
2019-04-23 21:00:00 5.7 4 Sudeste 14 Este 5.6 888.3 2.7 89
2019-04-23 20:00:00 7 3 Sudeste 8 Este 4.2 886.7 1.6 94
2019-04-23 19:00:00 7.5 2 Norte 20 Sudoeste 6.4 886 0.4 93
2019-04-23 18:00:00 9.4 12 Sudeste 49 Este 2 885.6 -0.6 78
2019-04-23 17:00:00 11.8 6 Sur 14 Sur 0 885.1 -1.2 75
2019-04-23 16:00:00 11.7 4 Sur 18 Este 0 885.6 -0.7 78
2019-04-23 15:00:00 10.2 12 Sudeste 31 Este 0.2 886.2 -0.1 81
2019-04-23 14:00:00 9.8 4 Sudeste 20 Sudeste 0.2 886.3 0.2 88
2019-04-23 13:00:00 9.7 6 Sur 19 Sudeste 0.6 886.3 0.5 87
2019-04-23 12:00:00 9.7 4 Sudeste 16 Sudeste 0.6 886.3 0.6 92
2019-04-23 11:00:00 9.2 3 Sur 10 Sur 0.4 886.1 0.5 92
2019-04-23 10:00:00 9 3 Sudeste 5 Sur 0.2 885.8 0.3 95
2019-04-23 09:00:00 8.4 0 Calma 2 Sudoeste 0.2 885.7 0.1 96
2019-04-23 08:00:00 8.1 0 Calma 5 Sur 0 885.6 -0.3 96
2019-04-23 07:00:00 8 2 Noroeste 6 Sur 0.8 885.5 -0.6 96
2019-04-23 06:00:00 8.1 0 Calma 14 Sudoeste 0 885.6 -0.9 95
2019-04-23 05:00:00 8.1 2 Noroeste 4 Noroeste 0 885.9 -1.3 95
2019-04-23 04:00:00 8.5 0 Calma 3 Sudoeste 0.4 886.1 -1.6 92
2019-04-23 03:00:00 8.8 0 Calma 3 Norte 0 886.5 -1.5 87
2019-04-23 02:00:00 9.1 0 Calma 3 Este 0 887.2 -0.9 85
2019-04-23 01:00:00 9.3 0 Calma 10 Este 0 887.7 -0.2 85
2019-04-23 00:00:00 9.6 3 Este 10 Este 0 888 0.6 82
2019-04-22 23:00:00 9.3 2 Nordeste 5 Noroeste 0 888.1 0.8 84
2019-04-22 22:00:00 9.6 3 Norte 6 Norte 0 887.9 0.6 80
2019-04-22 21:00:00 11.3 0 Calma 17 Sur 0 887.4 0 71
2019-04-22 20:00:00 12.7 6 Sudeste 23 Este 0 887.3 0.1 59
2019-04-22 19:00:00 13.6 9 Este 16 Este 0 887.3 -0.2 54
2019-04-22 18:00:00 13.5 5 Sudeste 22 Este 0 887.4 -1 56
2019-04-22 17:00:00 14.4 6 Sudeste 20 Sudeste 0 887.2 -2.1 53
2019-04-22 16:00:00 15.9 8 Sudeste 20 Este 0 887.5 -2.3 48
2019-04-22 15:00:00 15.8 5 Sudeste 14 Sur 0 888.4 -1.8 47
2019-04-22 14:00:00 13.3 2 Sur 23 Este 0 889.3 -1.7 57
2019-04-22 13:00:00 13 5 Sudeste 20 Sudeste 0 889.8 -1.4 56
2019-04-22 12:00:00 12.3 3 Este 9 Este 0 890.2 -1.2 58
2019-04-22 11:00:00 10.8 3 Este 8 Sur 0 891 -0.4 70
2019-04-22 10:00:00 8.7 0 Calma 5 Noroeste 0 891.2 -0.1 80
2019-04-22 09:00:00 6.1 0 Calma 17 Sudeste 0 891.4 0.1 92
2019-04-22 08:00:00 5.2 3 Sur 8 Norte 0 891.4 -1 94
2019-04-22 07:00:00 4.3 2 Noroeste 9 Norte 0 891.3 -2.1 94
2019-04-22 06:00:00 4.4 3 Oeste 13 Noroeste 0 891.3 -3.1 94
2019-04-22 05:00:00 4.5 3 Oeste 14 Norte 0 892.4 -3.3 92
2019-04-22 04:00:00 4.9 5 Noroeste 13 Noroeste 0 893.4 -2.9 91
2019-04-22 03:00:00 5.6 5 Noroeste 22 Norte 0 894.4 -2.6 87
2019-04-22 02:00:00 5.3 4 Noroeste 13 Sudoeste 0 895.7 -1.5 94
2019-04-22 01:00:00 6.5 2 Noroeste 13 Sudoeste 0 896.3 -0.8 92
2019-04-22 00:00:00 8.1 0 Calma 4 Noroeste 0 897 0.1 89
2019-04-21 23:00:00 8.3 0 Calma 6 Este 0 897.2 0.3 88
2019-04-21 22:00:00 8.5 0 Calma 3 Norte 0 897.1 0.1 86
2019-04-21 21:00:00 9.4 0 Calma 13 Nordeste 0 896.9 -0.6 80
2019-04-21 20:00:00 10.5 3 Sudeste 17 Sudeste 0 896.9 -0.6 70
2019-04-21 19:00:00 11.4 0 Calma 15 Sur 0 897 -1.1 65
2019-04-21 18:00:00 11.6 5 Sudeste 17 Sudeste 0 897.5 -1.2 65
2019-04-21 17:00:00 12.7 5 Sudeste 16 Sudeste 0 897.5 -1.9 59
2019-04-21 16:00:00 12.5 4 Sur 12 Sur 0 898.1 -1.9 58
2019-04-21 15:00:00 11.6 4 Noroeste 10 Oeste 0 898.7 -2 66
2019-04-21 14:00:00 9.9 2 Sur 6 Sudeste 0 899.4 -1.6 73
2019-04-21 13:00:00 9.5 2 Este 8 Este 0 900 -1.1 76
2019-04-21 12:00:00 8.3 3 Sudeste 13 Sur 0.2 900.7 -0.5 85
2019-04-21 11:00:00 8.4 4 Sudeste 16 Sur 0 901 -0.5 83
2019-04-21 10:00:00 8.4 3 Sudeste 9 Sudeste 0 901.1 -0.9 87
2019-04-21 09:00:00 7.1 3 Este 10 Norte 0 901.2 -1.3 93
2019-04-21 08:00:00 6.3 3 Noroeste 15 Sudoeste 0 901.5 -1.6 96
2019-04-21 07:00:00 5.8 0 Calma 5 Noroeste 0 902 -1.6 95
2019-04-21 06:00:00 6.2 0 Calma 5 Sudeste 0 902.5 -1.8 95
2019-04-21 05:00:00 6.3 4 Este 19 Sudeste 0.4 903.1 -1.8 93
2019-04-21 04:00:00 6.5 4 Sudeste 14 Sudeste 0.2 903.6 -1.9 93
2019-04-21 03:00:00 6.8 5 Este 12 Sur 0.2 904.3 -1.6 93
2019-04-21 02:00:00 7.5 3 Sudeste 14 Sur 0 904.9 -1 88
2019-04-21 01:00:00 7.7 4 Sudeste 16 Sur 0 905.5 -0.2 85
2019-04-21 00:00:00 7.9 3 Sudoeste 17 Sur 0 905.9 0.5 86
2019-04-20 23:00:00 8 4 Sur 15 Sur 0 905.9 0.6 86
2019-04-20 22:00:00 8.6 3 Sudoeste 19 Este 0 905.7 0.3 86
2019-04-20 21:00:00 9.7 0 Calma 14 Sudoeste 0 905.4 0 94
2019-04-20 20:00:00 10.2 0 Calma 8 Este 0 905.3 -0.2 93
2019-04-20 19:00:00 10.8 2 Este 5 Sur 1.2 905.4 0.4 91
2019-04-20 18:00:00 11.4 0 Calma 14 Sudoeste 1 905.4 0.3 88
2019-04-20 17:00:00 13.2 6 Norte 24 Sur 0 905.5 0.2 66
2019-04-20 16:00:00 15.9 7 Sur 30 Este 0 905 -0.9 49
2019-04-20 15:00:00 17 8 Sudeste 26 Sur 0 905.1 -1.2 39
2019-04-20 14:00:00 18.9 9 Sudeste 29 Este 0 905.3 -1.5 35
2019-04-20 13:00:00 18 9 Sudeste 33 Este 0 905.9 -1.7 34
2019-04-20 12:00:00 19.1 11 Sudeste 28 Sudeste 0 906.3 -1.6 33
2019-04-20 11:00:00 15.7 7 Sudeste 20 Sur 0 906.8 -1.1 42
2019-04-20 10:00:00 11.8 4 Sudeste 10 Este 0 907.6 -0.4 59
2019-04-20 09:00:00 7.9 2 Norte 9 Norte 0 907.9 -0.4 78
2019-04-20 08:00:00 5.2 4 Oeste 14 Norte 0 907.9 -1 87
2019-04-20 07:00:00 4 4 Noroeste 17 Oeste 0 908 -1.1 93
2019-04-20 06:00:00 4.3 0 Calma 7 Oeste 0 908.3 -0.8 92
2019-04-20 05:00:00 4.4 0 Calma 15 Sudoeste 0 908.9 -0.5 92
2019-04-20 04:00:00 4.5 0 Calma 14 Oeste 0 909.1 -0.5 91
2019-04-20 03:00:00 5 0 Calma 4 Nordeste 0 909.1 -0.8 90
2019-04-20 02:00:00 5.6 0 Calma 4 Norte 0 909.4 -0.4 86
2019-04-20 01:00:00 6.5 0 Calma 12 Sudoeste 0 909.6 -0.3 83
2019-04-20 00:00:00 7.3 3 Noroeste 8 Noroeste 0 909.9 0.6 82
2019-04-19 23:00:00 8.5 5 Noroeste 8 Noroeste 0 909.8 1.6 78
2019-04-19 22:00:00 10.5 2 Noroeste 14 Sudoeste 0 909.9 2.6 70
2019-04-19 21:00:00 11.3 3 Noroeste 7 Noroeste 0 909.3 2.4 66
2019-04-19 20:00:00 13.5 4 Noroeste 12 Sudeste 0 908.2 1.7 57
2019-04-19 19:00:00 16 5 Sur 20 Sur 0 907.3 0.5 42
2019-04-19 18:00:00 19.3 6 Sudeste 28 Sudeste 0 906.9 -0.6 29
2019-04-19 17:00:00 19.9 7 Sudeste 24 Sudeste 0 906.5 -1 28
2019-04-19 16:00:00 19 8 Sudeste 23 Sur 0 906.8 -0.1 29
2019-04-19 15:00:00 16.3 6 Sudeste 18 Sur 0 907.5 1.1 32
2019-04-19 14:00:00 14.8 6 Sudeste 23 Sudeste 0 907.5 1 40
2019-04-19 13:00:00 14.1 9 Sudeste 23 Sudeste 0 906.9 0.4 47
2019-04-19 12:00:00 14.4 3 Sudoeste 19 Sur 0 906.4 -0.1 51
2019-04-19 11:00:00 13.3 3 Noroeste 14 Noroeste 0 906.5 0.4 54
2019-04-19 10:00:00 11.6 6 Norte 22 Norte 0 906.5 1.4 56
2019-04-19 09:00:00 9.6 8 Norte 17 Norte 0 906.5 2.1 65
2019-04-19 08:00:00 7.5 3 Norte 14 Nordeste 0 906.1 1.2 81
2019-04-19 07:00:00 7.4 3 Noroeste 15 Norte 0 905.1 0.3 81
2019-04-19 06:00:00 8.3 6 Norte 18 Norte 0 904.4 -0.4 74
2019-04-19 05:00:00 7.7 4 Noroeste 12 Noroeste 0 904.9 -0.2 81
2019-04-19 04:00:00 8.7 3 Noroeste 17 Norte 0 904.8 1.3 76
2019-04-19 03:00:00 8.9 5 Noroeste 19 Este 0 904.8 1.6 76
2019-04-19 02:00:00 10.7 4 Sur 19 Este 0 905.1 2.3 59
2019-04-19 01:00:00 9.6 5 Noroeste 11 Noroeste 0 903.5 1.7 78
2019-04-19 00:00:00 10.3 4 Noroeste 13 Sudoeste 0 903.2 1.5 76
2019-04-18 23:00:00 12.3 4 Nordeste 27 Sudeste 0 902.8 1.5 58
2019-04-18 22:00:00 11.2 6 Sudeste 15 Sudeste 0 901.8 0.1 72
2019-04-18 21:00:00 12.5 6 Norte 18 Nordeste 0 901.7 0.6 67
2019-04-18 20:00:00 13.2 3 Norte 21 Este 0 901.3 0.1 67
2019-04-18 19:00:00 14.8 6 Este 20 Sur 0 901.7 0.4 59
2019-04-18 18:00:00 15.2 4 Norte 23 Este 0 901.1 0 53
2019-04-18 17:00:00 15.7 7 Sudeste 28 Sudeste 0 901.2 -1.5 50
2019-04-18 16:00:00 16.5 10 Sudeste 30 Sudeste 0 901.3 -2.3 47
2019-04-18 15:00:00 17.6 14 Norte 34 Norte 0 901.1 -3.1 39
2019-04-18 14:00:00 13.7 12 Norte 27 Norte 0 902.7 -2.4 59
2019-04-18 13:00:00 12.6 13 Norte 27 Norte 0 903.6 -0.5 69
2019-04-18 12:00:00 12.9 9 Noroeste 18 Sur 0 904.2 0.6 64
2019-04-18 11:00:00 12.5 8 Sudeste 34 Este 0 905.1 1.7 64
2019-04-18 10:00:00 11.3 5 Sudeste 13 Norte 0 904.1 1.1 70
2019-04-18 09:00:00 8.6 4 Noroeste 8 Noroeste 0 903.6 0.1 84
2019-04-18 08:00:00 7.2 2 Noroeste 8 Noroeste 0 903.4 -0.2 88
2019-04-18 07:00:00 7.3 3 Oeste 19 Norte 0 903 -0.2 85
2019-04-18 06:00:00 7.9 9 Norte 18 Norte 0 903.5 0.2 82
2019-04-18 05:00:00 7.3 4 Noroeste 14 Sudoeste 0 903.6 -0.8 88
2019-04-18 04:00:00 7.3 3 Sudeste 23 Norte 0 903.2 -1.1 87
2019-04-18 03:00:00 8 3 Noroeste 17 Norte 0 903.3 -1.1 86
2019-04-18 02:00:00 7.7 4 Noroeste 15 Sudoeste 0 904.4 0.7 90
2019-04-18 01:00:00 8.4 3 Oeste 15 Norte 0 904.3 1 87
2019-04-18 00:00:00 8.4 3 Este 14 Oeste 0 904.4 1.9 89
2019-04-17 23:00:00 8.9 2 Noroeste 13 Sudeste 0 903.7 1.6 88
2019-04-17 22:00:00 9.9 4 Noroeste 15 Sudeste 0 903.3 1.6 84
2019-04-17 21:00:00 11.8 2 Noroeste 13 Sudoeste 0 902.5 0.9 78
2019-04-17 20:00:00 14.8 3 Noroeste 13 Este 0 902.1 0.4 67
2019-04-17 19:00:00 16.8 5 Sudeste 20 Este 0 901.7 -0.2 52
2019-04-17 18:00:00 18.6 8 Sudeste 27 Sur 0 901.6 -0.8 47
2019-04-17 17:00:00 18.7 8 Sudeste 29 Sur 0 901.7 -1.5 48
2019-04-17 16:00:00 19.6 8 Sudeste 28 Este 0 901.9 -1.8 44
2019-04-17 15:00:00 18.7 7 Sudeste 30 Sur 0 902.4 -1.3 46
2019-04-17 14:00:00 16.8 8 Sudeste 35 Este 0 903.2 -1 51
2019-04-17 13:00:00 15.4 10 Sudeste 33 Este 0 903.7 -0.8 53
2019-04-17 12:00:00 15.2 8 Sudeste 26 Sur 0 903.7 -0.9 53
2019-04-17 11:00:00 13.5 5 Sudeste 20 Sudeste 0 904.2 -0.7 58
2019-04-17 10:00:00 11.8 6 Este 12 Este 0 904.5 -0.2 63
2019-04-17 09:00:00 8.4 2 Este 4 Este 0 904.6 -0.3 82
2019-04-17 08:00:00 6.6 0 Calma 14 Nordeste 0 904.9 -0.6 90
2019-04-17 07:00:00 6.9 6 Norte 12 Norte 0 904.7 -1.1 90
2019-04-17 06:00:00 7.5 0 Calma 5 Norte 0 904.9 -0.9 89
2019-04-17 05:00:00 7.4 0 Calma 5 Oeste 0 905.5 -0.7 87
2019-04-17 04:00:00 7.2 2 Noroeste 14 Norte 0 905.8 -0.4 88
2019-04-17 03:00:00 7.2 6 Norte 12 Norte 0 905.8 -0.1 86
2019-04-17 02:00:00 6.2 2 Sudeste 7 Norte 0 906.2 0.1 92
2019-04-17 01:00:00 6.7 2 Noroeste 5 Norte 0 906.2 0.4 90
2019-04-17 00:00:00 8.4 2 Noroeste 6 Noroeste 0 905.9 0.6 84
2019-04-16 23:00:00 10.3 2 Noroeste 14 Oeste 0 906.1 1.6 81
2019-04-16 22:00:00 10.8 4 Noroeste 11 Este 0 905.8 1.5 77
2019-04-16 21:00:00 10.6 3 Noroeste 12 Noroeste 0 905.3 1.2 80
2019-04-16 20:00:00 11.2 3 Noroeste 17 Este 0 904.5 0.5 75
2019-04-16 19:00:00 14 4 Sudeste 22 Sur 0 904.3 0.1 61
2019-04-16 18:00:00 15 7 Sudeste 25 Este 0 904.1 -0.4 53
2019-04-16 17:00:00 16.4 9 Sudeste 32 Este 0 904 -0.7 48
2019-04-16 16:00:00 17.5 8 Sudeste 30 Sudeste 0 904.2 -0.5 45
2019-04-16 15:00:00 17.1 10 Sudeste 34 Sur 0 904.5 0.1 46
2019-04-16 14:00:00 16.7 10 Sudeste 33 Este 0 904.7 -0.1 51
2019-04-16 13:00:00 15.6 12 Sudeste 33 Sudeste 0 904.7 0.2 56
2019-04-16 12:00:00 14.6 9 Sudeste 26 Sudeste 0 904.4 0.4 63
2019-04-16 11:00:00 11.8 8 Sudeste 28 Sur 0 904.8 0.8 75
2019-04-16 10:00:00 10.8 9 Sudeste 21 Sudeste 0 904.5 1.1 79
2019-04-16 09:00:00 9.3 3 Nordeste 16 Norte 0 904 1.3 90
2019-04-16 08:00:00 7.2 3 Noroeste 10 Noroeste 0 904 1.6 94
2019-04-16 07:00:00 7.2 4 Noroeste 9 Norte 0 903.4 0.8 96
2019-04-16 06:00:00 7.1 4 Noroeste 8 Noroeste 0 902.7 -0.1 97
2019-04-16 05:00:00 7.8 2 Norte 9 Norte 0 902.4 -0.2 96
2019-04-16 04:00:00 8.2 2 Noroeste 8 Este 0.6 902.6 0.3 96
2019-04-16 03:00:00 8.4 2 Noroeste 10 Nordeste 0.8 902.8 -0.2 96
2019-04-16 02:00:00 8.3 3 Este 6 Sudeste 0.2 902.6 0.4 96
2019-04-16 01:00:00 8.5 2 Noroeste 19 Norte 0.6 902.3 0.8 95
2019-04-16 00:00:00 8.9 3 Norte 10 Este 5.4 903 2.9 95
2019-04-15 23:00:00 9.2 5 Sudeste 25 Noroeste 0.8 902.2 2.2 91
2019-04-15 22:00:00 9.3 4 Este 48 Este 6.2 901.5 2.3 90
2019-04-15 21:00:00 13.2 9 Sudeste 25 Este 0 900.1 0.9 64
2019-04-15 20:00:00 14.3 7 Sudeste 36 Este 0 900 0.1 62
2019-04-15 19:00:00 16.4 10 Sudeste 34 Este 0 899.2 -1 53
2019-04-15 18:00:00 18.2 6 Sudeste 28 Sur 0 899.2 -1.2 50
2019-04-15 17:00:00 17.7 9 Sudeste 27 Sur 0 899.9 -0.9 52
2019-04-15 16:00:00 17.6 10 Sudeste 31 Sur 0 900.2 -1 51
2019-04-15 15:00:00 18.9 12 Sudeste 37 Sur 0 900.4 -1.2 46
2019-04-15 14:00:00 18.9 12 Sudeste 42 Este 0 900.8 -1.2 44
2019-04-15 13:00:00 17.6 12 Sudeste 38 Sudeste 0 901.2 -1 45
2019-04-15 12:00:00 17.8 10 Sudeste 33 Este 0 901.6 -1.3 45
2019-04-15 11:00:00 15.7 9 Sudeste 23 Sur 0 902 -1.4 47
2019-04-15 10:00:00 13.4 4 Sudeste 13 Noroeste 0 902.2 -0.8 53
2019-04-15 09:00:00 8.6 5 Noroeste 11 Noroeste 0 902.9 0 73
2019-04-15 08:00:00 5.1 2 Noroeste 11 Noroeste 0 903.4 0.3 87
2019-04-15 07:00:00 4.8 5 Noroeste 11 Noroeste 0 903 -0.5 87
2019-04-15 06:00:00 5.2 2 Norte 14 Noroeste 0 902.9 -0.6 86
2019-04-15 05:00:00 5.7 5 Noroeste 16 Noroeste 0 903.1 -0.7 85
2019-04-15 04:00:00 5.8 2 Noroeste 10 Noroeste 0 903.5 0 84
2019-04-15 03:00:00 6.6 4 Noroeste 15 Sudoeste 0 903.5 0.2 81
2019-04-15 02:00:00 6.7 5 Noroeste 11 Oeste 0 903.8 0.8 82
2019-04-15 01:00:00 7 3 Noroeste 10 Noroeste 0 903.5 0.8 82
2019-04-15 00:00:00 7.6 6 Noroeste 13 Noroeste 0 903.3 1.2 80
2019-04-14 23:00:00 7.5 0 Calma 4 Nordeste 0 903 1.1 80
2019-04-14 22:00:00 8.9 0 Calma 8 Norte 0 902.7 1.1 74
2019-04-14 21:00:00 10.7 3 Noroeste 13 Noroeste 0 902.1 0.9 69
2019-04-14 20:00:00 14 3 Norte 28 Noroeste 0 901.9 1 55
2019-04-14 19:00:00 15.6 15 Noroeste 35 Noroeste 0 901.6 0.8 49
2019-04-14 18:00:00 15.9 18 Noroeste 32 Noroeste 0 901.2 0.3 49
2019-04-14 17:00:00 16.6 13 Noroeste 30 Noroeste 0 900.9 -0.1 48
2019-04-14 16:00:00 16 5 Noroeste 13 Noroeste 0 900.8 0.1 63
2019-04-14 15:00:00 16.9 8 Noroeste 23 Noroeste 0 900.9 0.2 46
2019-04-14 14:00:00 17.5 10 Noroeste 27 Noroeste 0 901 0.2 43
2019-04-14 13:00:00 17.8 9 Norte 32 Noroeste 0 900.7 -0.6 40
2019-04-14 12:00:00 17.9 13 Noroeste 29 Noroeste 0 900.7 -0.5 38
2019-04-14 11:00:00 16.6 14 Noroeste 32 Noroeste 0 900.8 -0.1 31
2019-04-14 10:00:00 14.5 15 Noroeste 45 Noroeste 0 901.3 0.5 31
2019-04-14 09:00:00 13.2 19 Noroeste 41 Noroeste 0 901.2 0.2 32
2019-04-14 08:00:00 9.3 11 Norte 25 Noroeste 0 900.9 -0.7 45
2019-04-14 07:00:00 3.9 0 Calma 7 Noroeste 0 900.8 -1.2 71
2019-04-14 06:00:00 4.2 2 Noroeste 14 Nordeste 0 901 -1.3 66
2019-04-14 05:00:00 4.1 4 Noroeste 11 Oeste 0 901.6 -1.4 62
2019-04-14 04:00:00 3.4 4 Noroeste 17 Norte 0 902 -1.3 58
2019-04-14 03:00:00 2.9 6 Noroeste 18 Noroeste 0 902.3 -1.7 57
2019-04-14 02:00:00 2.7 4 Noroeste 14 Noroeste 0 903 -0.9 56
2019-04-14 01:00:00 3.1 6 Noroeste 17 Norte 0 903.3 -0.6 52
2019-04-14 00:00:00 3.2 5 Noroeste 10 Noroeste 0 904 0.6 54
2019-04-13 23:00:00 4.3 4 Noroeste 16 Noroeste 0 903.9 1 49
2019-04-13 22:00:00 5.4 3 Noroeste 18 Oeste 0 903.9 1.4 45
2019-04-13 21:00:00 7.2 4 Noroeste 14 Sudoeste 0 903.4 1 40
2019-04-13 20:00:00 10.2 4 Oeste 18 Noroeste 0 902.9 0.6 27
2019-04-13 19:00:00 13.1 5 Noroeste 27 Noroeste 0 902.5 0.2 23
2019-04-13 18:00:00 17.7 12 Noroeste 30 Noroeste 0 902.4 -0.3 10
2019-04-13 17:00:00 18.2 13 Noroeste 35 Noroeste 0 902.3 -0.3 9
2019-04-13 16:00:00 18.6 16 Norte 33 Norte 0 902.3 -0.8 9
2019-04-13 15:00:00 18.3 14 Noroeste 33 Noroeste 0 902.7 -1.1 9
2019-04-13 14:00:00 18.3 15 Noroeste 30 Noroeste 0 902.6 -1.4 9
2019-04-13 13:00:00 17.9 11 Oeste 30 Noroeste 0 903.1 -0.8 12
2019-04-13 12:00:00 16.9 8 Oeste 27 Noroeste 0 903.8 -0.4 10
2019-04-13 11:00:00 14.8 12 Noroeste 30 Noroeste 0 904 -0.2 9
2019-04-13 10:00:00 11.2 10 Noroeste 17 Noroeste 0 903.9 0.1 15
2019-04-13 09:00:00 2.2 0 Calma 14 Nordeste 0 904.2 0.7 58
2019-04-13 08:00:00 -0.6 3 Noroeste 15 Noroeste 0 904.2 0.7 65
2019-04-13 07:00:00 -0.4 3 Noroeste 14 Nordeste 0 903.8 0.1 63
2019-04-13 06:00:00 1.1 5 Noroeste 18 Noroeste 0 903.5 -0.8 52
2019-04-13 05:00:00 1.6 8 Noroeste 22 Norte 0 903.5 -1.1 49
2019-04-13 04:00:00 1.8 11 Noroeste 27 Noroeste 0 903.7 -1 47
2019-04-13 03:00:00 3.1 13 Norte 29 Norte 0 904.3 -0.5 39
2019-04-13 02:00:00 3 10 Norte 30 Noroeste 0 904.6 -0.1 39
2019-04-13 01:00:00 3.9 15 Norte 28 Norte 0 904.7 0.3 39
2019-04-13 00:00:00 3.9 10 Noroeste 23 Noroeste 0 904.8 0.9 46
2019-04-12 23:00:00 4.6 14 Noroeste 26 Noroeste 0 904.7 1.3 46
2019-04-12 22:00:00 6.5 12 Noroeste 27 Noroeste 0 904.4 1.4 37
2019-04-12 21:00:00 7.1 9 Noroeste 21 Noroeste 0 903.9 1.2 35
2019-04-12 20:00:00 9.3 6 Noroeste 26 Noroeste 0 903.4 1.2 27
2019-04-12 19:00:00 10.8 11 Noroeste 29 Noroeste 0 903 0.6 22
2019-04-12 18:00:00 13.6 14 Noroeste 30 Noroeste 0 902.7 0.2 18
2019-04-12 17:00:00 14.6 13 Noroeste 34 Norte 0 902.2 -0.5 18
2019-04-12 16:00:00 14.5 17 Noroeste 55 Noroeste 0 902.4 -0.6 17
2019-04-12 15:00:00 14.3 18 Noroeste 44 Noroeste 0 902.5 -0.6 19
2019-04-12 14:00:00 14 19 Noroeste 42 Noroeste 0 902.7 -0.4 22
2019-04-12 13:00:00 12.8 21 Noroeste 45 Noroeste 0 903 0.1 24
2019-04-12 12:00:00 12.1 19 Noroeste 43 Noroeste 0 903.1 0.1 22
2019-04-12 11:00:00 11.1 14 Noroeste 34 Oeste 0 903.1 0.2 25
2019-04-12 10:00:00 9.5 13 Noroeste 32 Noroeste 0 902.9 0.4 27
2019-04-12 09:00:00 7.9 14 Noroeste 26 Noroeste 0 903 0.5 35
2019-04-12 08:00:00 4.2 12 Noroeste 24 Noroeste 0 902.9 0.4 55
2019-04-12 07:00:00 4.1 10 Noroeste 21 Noroeste 0 902.5 0 59
2019-04-12 06:00:00 5.1 8 Norte 35 Noroeste 0 902.5 0.1 56
2019-04-12 05:00:00 6.4 11 Noroeste 29 Norte 0 902.5 -0.5 49
2019-04-12 04:00:00 7.7 13 Noroeste 26 Noroeste 0 902.5 -0.1 45
2019-04-12 03:00:00 7.3 10 Noroeste 26 Noroeste 0 902.4 0 49
2019-04-12 02:00:00 7.6 10 Noroeste 49 Noroeste 0 903 0.2 51
2019-04-12 01:00:00 7.9 15 Noroeste 35 Noroeste 0 902.6 0.5 54
2019-04-12 00:00:00 7.1 10 Norte 30 Oeste 0 902.4 0.7 60
2019-04-11 23:00:00 7.4 13 Noroeste 26 Noroeste 0 902.8 1.5 65
2019-04-11 22:00:00 8.6 10 Noroeste 34 Noroeste 0 902.1 1 50
2019-04-11 21:00:00 8.7 11 Noroeste 31 Noroeste 0 901.7 0.4 47
2019-04-11 20:00:00 9.1 10 Noroeste 26 Noroeste 0 901.3 0.3 46
2019-04-11 19:00:00 9.2 11 Noroeste 27 Noroeste 0 901.1 0.2 43
2019-04-11 18:00:00 9.4 16 Noroeste 38 Noroeste 0 901.3 0.2 44
2019-04-11 17:00:00 9.9 17 Noroeste 45 Noroeste 0 901 -0.2 43
2019-04-11 16:00:00 10.5 13 Noroeste 34 Noroeste 0 900.9 -0.4 39
2019-04-11 15:00:00 10.3 15 Noroeste 32 Oeste 0 901.1 -0.5 37
2019-04-11 14:00:00 11.1 13 Noroeste 40 Noroeste 0 901.2 -0.6 34
2019-04-11 13:00:00 11 14 Noroeste 40 Noroeste 0 901.3 0 32
2019-04-11 12:00:00 10.4 17 Noroeste 38 Noroeste 0 901.6 0.5 33
2019-04-11 11:00:00 8.7 15 Noroeste 43 Noroeste 0 901.8 1 32
2019-04-11 10:00:00 7.8 20 Noroeste 40 Noroeste 0 901.3 0.6 33
2019-04-11 09:00:00 7.6 21 Noroeste 43 Noroeste 0 901.1 0.3 30
2019-04-11 08:00:00 6 17 Noroeste 32 Noroeste 0 900.8 -0.3 35
2019-04-11 07:00:00 4.7 10 Noroeste 23 Noroeste 0 900.7 -0.2 46
2019-04-11 06:00:00 4.7 8 Norte 31 Oeste 0 900.8 0 51
2019-04-11 05:00:00 5.7 10 Noroeste 23 Noroeste 0 901.1 0.1 45
2019-04-11 04:00:00 5.8 8 Noroeste 28 Noroeste 0 900.9 0.1 47
2019-04-11 03:00:00 6.7 12 Noroeste 35 Noroeste 0 900.8 0.4 44
2019-04-11 02:00:00 7.4 18 Noroeste 48 Noroeste 0 901 0.5 44
2019-04-11 01:00:00 7.4 18 Noroeste 45 Noroeste 0 900.8 0.5 45
2019-04-11 00:00:00 7.3 14 Noroeste 33 Noroeste 0 900.4 0.7 50
2019-04-10 23:00:00 7.1 19 Noroeste 35 Noroeste 0 900.5 1.5 54
2019-04-10 22:00:00 7.5 14 Noroeste 30 Noroeste 0 900.3 1.7 48
2019-04-10 21:00:00 8.1 13 Noroeste 28 Noroeste 0 899.7 1.8 43
2019-04-10 20:00:00 8.5 13 Noroeste 32 Noroeste 0 899 1.4 45
2019-04-10 19:00:00 9.6 14 Noroeste 37 Noroeste 0 898.6 0.8 40
2019-04-10 18:00:00 11.2 8 Noroeste 29 Noroeste 0 897.9 0.1 38
2019-04-10 17:00:00 11.4 12 Oeste 32 Noroeste 0 897.6 0.3 34
2019-04-10 16:00:00 13 13 Noroeste 32 Noroeste 0 897.8 0.5 32
2019-04-10 15:00:00 11.3 16 Noroeste 41 Noroeste 0 897.8 0.2 41
2019-04-10 14:00:00 12.6 7 Norte 38 Noroeste 0 897.3 -0.1 39
2019-04-10 13:00:00 12.4 18 Noroeste 33 Noroeste 0 897.3 0.3 32
2019-04-10 12:00:00 11.4 13 Noroeste 34 Noroeste 0 897.6 0.9 34
2019-04-10 11:00:00 10.6 14 Noroeste 33 Noroeste 0 897.4 0.9 33
2019-04-10 10:00:00 9.5 13 Noroeste 24 Noroeste 0 897 1 41
2019-04-10 09:00:00 6.6 7 Noroeste 18 Noroeste 0 896.7 1.1 66
2019-04-10 08:00:00 4.8 8 Norte 23 Norte 0 896.5 0.8 72
2019-04-10 07:00:00 3.1 4 Noroeste 13 Noroeste 0 896 0 87
2019-04-10 06:00:00 2.5 2 Noroeste 13 Oeste 0 895.6 -0.4 86
2019-04-10 05:00:00 2.5 4 Noroeste 21 Noroeste 0 895.7 -0.6 84
2019-04-10 04:00:00 1.8 3 Oeste 12 Noroeste 0 896 -0.5 88
2019-04-10 03:00:00 2.3 2 Noroeste 8 Oeste 0 896 -0.8 87
2019-04-10 02:00:00 3.4 3 Noroeste 17 Noroeste 0 896.3 -0.1 79
2019-04-10 01:00:00 4.3 9 Norte 15 Norte 0 896.5 0.3 77
2019-04-10 00:00:00 5.2 3 Este 9 Este 0 896.8 1.5 73
2019-04-09 23:00:00 6.6 0 Calma 15 Sudoeste 0 896.4 1.9 71
2019-04-09 22:00:00 8.1 6 Sudeste 24 Noroeste 0 896.2 2.2 62
2019-04-09 21:00:00 8.9 13 Noroeste 28 Noroeste 0 895.3 1.8 51
2019-04-09 20:00:00 9.7 13 Noroeste 34 Oeste 0 894.5 1 47
2019-04-09 19:00:00 11.1 14 Noroeste 33 Noroeste 0 894 0.3 42
2019-04-09 18:00:00 12.4 18 Noroeste 37 Noroeste 0 893.5 -0.4 37
2019-04-09 17:00:00 13.9 9 Sudeste 24 Este 0 893.5 -0.8 28
2019-04-09 16:00:00 13.9 7 Sudeste 33 Sur 0 893.7 -1 35
2019-04-09 15:00:00 15.8 7 Sudeste 23 Sur 0 893.9 -1.1 30
2019-04-09 14:00:00 14.9 5 Norte 17 Sur 0 894.3 -1.1 26
2019-04-09 13:00:00 13.5 5 Sudeste 19 Sur 0 894.7 -1.3 35
2019-04-09 12:00:00 13.2 10 Sur 21 Sur 0 895 -1.5 38
2019-04-09 11:00:00 12.1 5 Sudeste 15 Este 0 895.4 -1.2 51
2019-04-09 10:00:00 8.7 4 Sudeste 10 Sudeste 0 896 -0.2 65
2019-04-09 09:00:00 4.3 0 Calma 17 Oeste 0 896.5 0.4 89
2019-04-09 08:00:00 2.1 2 Noroeste 14 Nordeste 0 896.6 0.3 94
2019-04-09 07:00:00 2.1 2 Noroeste 8 Noroeste 0 896.2 -0.4 92
2019-04-09 06:00:00 2.8 4 Noroeste 8 Noroeste 0 896.1 -0.9 91
2019-04-09 05:00:00 3 4 Oeste 16 Sudoeste 0 896.3 -1 91
2019-04-09 04:00:00 3.1 2 Norte 8 Oeste 0 896.6 -1 91
2019-04-09 03:00:00 3.6 5 Noroeste 12 Norte 0 897 -0.5 88
2019-04-09 02:00:00 2.9 0 Calma 9 Noroeste 0 897.3 -0.6 90
2019-04-09 01:00:00 3 4 Noroeste 10 Noroeste 0 897.6 -0.3 90
2019-04-09 00:00:00 3.2 2 Noroeste 18 Sudoeste 0 897.5 0.1 89
2019-04-08 23:00:00 3.3 2 Oeste 10 Noroeste 0 897.9 1.1 87
2019-04-08 22:00:00 4.3 4 Noroeste 14 Sudoeste 0 897.9 1.3 83
2019-04-08 21:00:00 5.6 6 Noroeste 13 Noroeste 0 897.4 1 78
2019-04-08 20:00:00 7.2 3 Noroeste 8 Sur 0 896.8 0.4 75
2019-04-08 19:00:00 10.4 4 Sur 25 Sur 0 896.6 -0.1 63
2019-04-08 18:00:00 13.2 7 Sudeste 20 Sudeste 0 896.4 -0.6 47
2019-04-08 17:00:00 13.7 6 Sudeste 24 Sudeste 0 896.4 -0.8 47
2019-04-08 16:00:00 14.6 10 Sudeste 27 Sur 0 896.7 -0.7 44
2019-04-08 15:00:00 13.6 9 Sudeste 26 Este 0 897 -0.6 44
2019-04-08 14:00:00 14.3 10 Sudeste 25 Sudeste 0 897.2 -0.5 42
2019-04-08 13:00:00 12.6 8 Sudeste 21 Sur 0 897.4 -0.4 45
2019-04-08 12:00:00 11.7 9 Sudeste 19 Sudeste 0 897.6 -0.7 45
2019-04-08 11:00:00 10 7 Sudeste 14 Sur 0 897.7 -0.6 46
2019-04-08 10:00:00 7.8 3 Sudeste 8 Sudeste 0 897.8 -0.4 61
2019-04-08 09:00:00 3.7 3 Este 6 Este 0 898.3 -0.1 84
2019-04-08 08:00:00 2.2 2 Oeste 10 Noroeste 0 898.3 -0.2 89
2019-04-08 07:00:00 2.3 5 Noroeste 13 Norte 0 898.2 -0.2 86
2019-04-08 06:00:00 1.5 0 Calma 15 Sudoeste 0 898.4 -0.3 92
2019-04-08 05:00:00 1.2 0 Calma 14 Este 0 898.5 -0.3 93
2019-04-08 04:00:00 0.9 2 Noroeste 10 Norte 0 898.4 -0.7 94
2019-04-08 03:00:00 0.6 2 Noroeste 5 Oeste 0 898.7 -0.4 95
2019-04-08 02:00:00 0.4 2 Noroeste 15 Sudoeste 0 898.8 -0.4 94
2019-04-08 01:00:00 0.6 5 Noroeste 10 Noroeste 0 899.1 0.3 93
2019-04-08 00:00:00 1.3 3 Noroeste 13 Noroeste 0 899.1 0.9 90
2019-04-07 23:00:00 1.5 5 Noroeste 15 Sudoeste 0 899.2 2.1 89
2019-04-07 22:00:00 1.9 5 Noroeste 12 Noroeste 0 898.8 2.5 87
2019-04-07 21:00:00 2.8 6 Noroeste 14 Sudoeste 0 898.2 2.8 85
2019-04-07 20:00:00 4.5 4 Noroeste 12 Sudoeste 0 897.1 2.1 76
2019-04-07 19:00:00 5.9 0 Calma 7 Oeste 0 896.3 1.9 72
2019-04-07 18:00:00 10.8 6 Oeste 30 Noroeste 0 895.4 1.1 54
2019-04-07 17:00:00 12.4 13 Noroeste 27 Norte 0 895 0.9 31
2019-04-07 16:00:00 11.9 10 Noroeste 31 Noroeste 0 894.4 0.6 35
2019-04-07 15:00:00 11.9 7 Noroeste 21 Noroeste 0 894.3 0.9 36
2019-04-07 14:00:00 11.3 12 Noroeste 23 Noroeste 0 894.1 1 36
2019-04-07 13:00:00 9.9 10 Noroeste 22 Norte 0 893.8 1.3 40
2019-04-07 12:00:00 9.5 5 Norte 14 Norte 0 893.4 1.4 59
2019-04-07 11:00:00 5.3 5 Noroeste 14 Noroeste 0 893.1 1.8 76
2019-04-07 10:00:00 3.4 9 Noroeste 20 Norte 0 892.5 2 87
2019-04-07 09:00:00 2.1 10 Norte 22 Noroeste 0 892 1.9 91
2019-04-07 08:00:00 0.2 0 Calma 4 Nordeste 0 891.3 1.5 98
2019-04-07 07:00:00 0.1 0 Calma 5 Oeste 0 890.5 0.9 98
2019-04-07 06:00:00 0.6 2 Noroeste 4 Noroeste 0 890.1 0.3 98
2019-04-07 05:00:00 0.4 0 Calma 8 Noroeste 0 889.8 0 98
2019-04-07 04:00:00 0.7 3 Oeste 5 Oeste 0 889.6 -0.4 98
2019-04-07 03:00:00 1 0 Calma 16 Sudeste 0 889.8 -0.2 98
2019-04-07 02:00:00 1.1 2 Noroeste 14 Sudoeste 0 889.8 -0.1 98
2019-04-07 01:00:00 1 0 Calma 14 Sudoeste 0.2 890 0.1 97
2019-04-07 00:00:00 1 0 Calma 12 Este 0.4 890 0.6 97
2019-04-06 23:00:00 1.6 7 Sudeste 17 Sur 1.2 889.9 1 96
2019-04-06 22:00:00 2.1 2 Sudeste 16 Sudoeste 0.4 889.9 1.2 97
2019-04-06 21:00:00 2.2 0 Calma 10 Este 0 889.4 1.2 95
2019-04-06 20:00:00 2.8 5 Este 11 Este 0 888.9 1.1 94
2019-04-06 19:00:00 3.4 0 Calma 18 Este 1.2 888.7 1.4 88
2019-04-06 18:00:00 4.1 3 Sur 28 Este 0.2 888.2 0.1 84
2019-04-06 17:00:00 6 8 Sudeste 24 Sudeste 0 887.8 0 69
2019-04-06 16:00:00 9.7 8 Sudeste 17 Sudeste 0 887.3 0 54
2019-04-06 15:00:00 6.6 8 Sudeste 26 Sudeste 1.2 888.1 1.2 69
2019-04-06 14:00:00 7.7 7 Sudeste 29 Sudeste 3 887.8 1.4 64
2019-04-06 13:00:00 5.9 14 Sudeste 33 Este 3 887.3 1.4 69
2019-04-06 12:00:00 4.4 4 Sur 14 Sudeste 2 886.9 1.4 76
2019-04-06 11:00:00 3.2 5 Sur 17 Sudeste 1.8 886.4 1.4 82
2019-04-06 10:00:00 1.3 3 Sudeste 18 Sudeste 1.2 885.9 1.4 95
2019-04-06 09:00:00 0.7 4 Este 10 Sudeste 0.6 885.5 1.4 97
2019-04-06 08:00:00 0.5 3 Sudeste 19 Sudeste 0.2 885 1.1 98
2019-04-06 07:00:00 0.4 2 Sudeste 9 Este 0.2 884.5 0.4 98
2019-04-06 06:00:00 0.4 0 Calma 15 Sudoeste 0.2 884.1 -0.1 98
2019-04-06 05:00:00 0.4 2 Noroeste 17 Este 0.2 883.9 -0.6 98
2019-04-06 04:00:00 0.4 8 Este 20 Sudeste 0.4 884.1 -0.7 98
2019-04-06 03:00:00 0.4 2 Este 4 Este 0.4 884.2 -1.1 97
2019-04-06 02:00:00 0.5 2 Sudeste 15 Sudeste 0.4 884.5 -1.1 97
2019-04-06 01:00:00 0.5 0 Calma 4 Este 0.4 884.8 -1.3 97
2019-04-06 00:00:00 0.6 0 Calma 3 Este 0.8 885.3 -0.5 96
2019-04-05 23:00:00 0.9 0 Calma 4 Noroeste 1 885.6 -0.2 95
2019-04-05 22:00:00 1.3 0 Calma 3 Este 2 886.1 0.1 93
2019-04-05 21:00:00 2.2 0 Calma 14 Oeste 2.8 885.8 -0.3 92
2019-04-05 20:00:00 3.6 6 Norte 20 Norte 1.2 885.8 -0.6 91
2019-04-05 19:00:00 4.4 7 Noroeste 15 Sudoeste 0.2 886 -0.5 89
2019-04-05 18:00:00 5.3 0 Calma 13 Sudeste 0.6 886.1 -1.1 86
2019-04-05 17:00:00 6.1 5 Sur 19 Sur 0.4 886.4 -1.1 80
2019-04-05 16:00:00 7.3 6 Sudeste 21 Sur 0 886.5 -1.5 67
2019-04-05 15:00:00 7.1 9 Sur 25 Sur 0 887.2 -1.2 67
2019-04-05 14:00:00 7.2 8 Sur 27 Sudeste 0 887.5 -1.1 74
2019-04-05 13:00:00 6.3 8 Sur 26 Sudeste 0 888 -0.4 73
2019-04-05 12:00:00 4.3 9 Sudeste 23 Sur 0 888.4 -0.2 81
2019-04-05 11:00:00 3.4 7 Sudeste 19 Sudeste 0 888.6 0 83
2019-04-05 10:00:00 3.2 6 Sudeste 24 Sur 0 888.4 -0.2 82
2019-04-05 09:00:00 2.9 4 Norte 17 Noroeste 0 888.6 -0.1 79
2019-04-05 08:00:00 3 7 Norte 18 Norte 0 888.6 0 73
2019-04-05 07:00:00 2.7 2 Nordeste 16 Sudoeste 0 888.6 -0.6 75
2019-04-05 06:00:00 2.4 4 Norte 10 Norte 0 888.7 -0.5 79
2019-04-05 05:00:00 2.7 5 Noroeste 12 Sudoeste 0 888.6 -0.5 71
2019-04-05 04:00:00 1.5 3 Noroeste 6 Noroeste 0 889.2 0 80
2019-04-05 03:00:00 0.8 2 Noroeste 4 Noroeste 0 889.2 -0.3 81
2019-04-05 02:00:00 0.7 2 Noroeste 14 Sudoeste 0 889.1 -0.5 78
2019-04-05 01:00:00 0.3 2 Noroeste 8 Nordeste 0 889.2 -0.8 79
2019-04-05 00:00:00 0.3 4 Noroeste 13 Nordeste 0 889.5 0.2 78
2019-04-04 23:00:00 1.3 0 Calma 12 Sudoeste 0 889.6 1.3 77
2019-04-04 22:00:00 3.6 3 Sudeste 17 Sudeste 0 890 1.8 62
2019-04-04 21:00:00 4.6 4 Sudeste 21 Sudeste 0 889.3 1.3 58
2019-04-04 20:00:00 7.5 10 Este 24 Este 0 888.3 0.6 35
2019-04-04 19:00:00 6.9 5 Este 12 Este 0 888.2 0.5 39
2019-04-04 18:00:00 8.8 6 Sur 19 Sudeste 0 888 0.2 37
2019-04-04 17:00:00 11.8 5 Sur 25 Sur 0 887.7 -0.3 26
2019-04-04 16:00:00 11.5 10 Sudeste 28 Sudeste 0 887.7 -0.3 26
2019-04-04 15:00:00 11.6 10 Sudeste 30 Sur 0 887.8 -0.6 27
2019-04-04 14:00:00 10.7 9 Sudeste 26 Sudeste 0 888 -0.5 26
2019-04-04 13:00:00 9.9 9 Sur 20 Sur 0 888 -0.7 29
2019-04-04 12:00:00 8.3 9 Sudeste 17 Sur 0 888.4 -0.4 32
2019-04-04 11:00:00 4.6 6 Sudeste 15 Sudeste 0 888.5 0.3 49
2019-04-04 10:00:00 1.4 2 Sudeste 8 Este 0 888.7 1.4 68
2019-04-04 09:00:00 -3.2 3 Noroeste 7 Norte 0 888.8 1.8 95
2019-04-04 08:00:00 -3.4 0 Calma 16 Sudeste 0 888.2 1.3 96
2019-04-04 07:00:00 -3.2 2 Norte 6 Norte 0 887.3 0.3 97
2019-04-04 06:00:00 -3.1 3 Norte 7 Noroeste 0 887 -0.3 97
2019-04-04 05:00:00 -2.7 2 Norte 12 Nordeste 0 886.9 -1.1 97
2019-04-04 04:00:00 -2.3 4 Este 14 Nordeste 0 887 -1.1 97
2019-04-04 03:00:00 -2.1 0 Calma 5 Norte 0 887.3 -1.2 97
2019-04-04 02:00:00 -1.8 0 Calma 6 Norte 0 888 -0.5 96
2019-04-04 01:00:00 -1.3 3 Noroeste 15 Sudoeste 0 888.1 -0.4 96
2019-04-04 00:00:00 -0.7 2 Noroeste 9 Oeste 0 888.5 0.3 93
2019-04-03 23:00:00 0.2 3 Noroeste 15 Sudoeste 0 888.5 0.7 91
2019-04-03 22:00:00 1.5 3 Noroeste 5 Norte 0 888.5 0.9 88
2019-04-03 21:00:00 3 3 Noroeste 13 Norte 0 888.2 0.1 80
2019-04-03 20:00:00 4.8 6 Noroeste 25 Norte 0 887.8 -0.3 58
2019-04-03 19:00:00 6.2 3 Sur 20 Noroeste 0 887.6 -1.4 66
2019-04-03 18:00:00 5.8 12 Noroeste -- -- 0 888.1 -1.5 66
2019-04-03 17:00:00 7.6 0 Calma 19 Sudoeste 0.2 888.1 -2 72
2019-04-03 16:00:00 7 5 Sur 26 Sudeste 0.2 889 -1.7 61
2019-04-03 15:00:00 6.8 10 Sudeste 34 Este 0.4 889.6 -1.7 70
2019-04-03 14:00:00 6.6 9 Este 22 Este 0.2 890.1 -1.6 67
2019-04-03 13:00:00 6.8 3 Sur 24 Este 0.2 890.7 -1.6 76
2019-04-03 12:00:00 5.9 6 Sudeste 26 Sur 1.6 891.3 -1.5 83
2019-04-03 11:00:00 6.1 3 Sudeste 23 Este 0.4 891.7 -1.4 89
2019-04-03 10:00:00 5.4 6 Sudeste 18 Sudeste 0.2 892.3 -1.5 92
2019-04-03 09:00:00 4.7 7 Sudeste 15 Sudeste 0 892.8 -1.1 94
2019-04-03 08:00:00 4.1 7 Sudeste 18 Sudeste 0 893.1 -1 95
2019-04-03 07:00:00 4.1 3 Sudeste 17 Sudoeste 3.8 893.8 -1.5 94
2019-04-03 06:00:00 4.9 3 Oeste 23 Este 1.4 893.9 -2.4 95
2019-04-03 05:00:00 4.8 2 Oeste 8 Noroeste 0.4 894.1 -3.1 96
2019-04-03 04:00:00 4.6 0 Calma 13 Sudeste 0.2 895.3 -2.6 96
2019-04-03 03:00:00 4.5 3 Este 7 Nordeste 0.2 896.3 -2.3 96
2019-04-03 02:00:00 4 3 Este 9 Norte 0 897.2 -1.5 94
2019-04-03 01:00:00 3.3 2 Oeste 17 Sudoeste 0 897.9 -0.6 94
2019-04-03 00:00:00 3.3 2 Este 6 Oeste 0 898.6 0.4 93
2019-04-02 23:00:00 4.1 0 Calma 14 Oeste 0 898.7 1.1 89
2019-04-02 22:00:00 4.9 2 Noroeste 12 Sudoeste 0 898.5 0.7 89
2019-04-02 21:00:00 6.4 2 Norte 5 Noroeste 0 898.2 0.3 86
2019-04-02 20:00:00 8.7 3 Noroeste 6 Este 0 897.6 -0.8 82
2019-04-02 19:00:00 9.5 0 Calma 5 Oeste 0 897.8 -0.7 81
2019-04-02 18:00:00 10.4 2 Oeste 8 Sudoeste 0.4 897.9 -1.7 80
2019-04-02 17:00:00 12.6 2 Sur 15 Norte 0 898.4 -1.1 56
2019-04-02 16:00:00 12.4 3 Oeste 18 Sur 0 898.5 -1 51
2019-04-02 15:00:00 11.3 10 Sudeste 25 Sudeste 0 899.6 -0.5 64
2019-04-02 14:00:00 12.4 4 Sur 24 Sudeste 0.4 899.5 -1.1 76
2019-04-02 13:00:00 14.2 5 Sudeste 23 Sudeste 0 899.5 -1.4 48
2019-04-02 12:00:00 14.6 7 Sudeste 22 Sudeste 0 900.1 -0.9 51
2019-04-02 11:00:00 12.5 6 Sudeste 16 Sudeste 0 900.6 -0.6 61
2019-04-02 10:00:00 9.8 2 Sudeste 9 Nordeste 0 900.9 0.1 77
2019-04-02 09:00:00 6 0 Calma 14 Noroeste 0.2 901 0.3 96
2019-04-02 08:00:00 5.3 0 Calma 12 Sudoeste 0 901.2 0.1 97
2019-04-02 07:00:00 5.8 3 Noroeste 12 Sudoeste 0 900.8 -0.5 96
2019-04-02 06:00:00 6.8 7 Norte 17 Norte 0 900.7 -0.9 95
2019-04-02 05:00:00 6.7 2 Noroeste 11 Norte 0.8 901.1 -0.9 96
2019-04-02 04:00:00 6.6 2 Noroeste 5 Este 0 901.3 -0.8 96
2019-04-02 03:00:00 6.6 2 Noroeste 4 Oeste 0 901.6 -0.7 95
2019-04-02 02:00:00 6.8 0 Calma 7 Noroeste 0 902 -0.4 95
2019-04-02 01:00:00 6.9 3 Noroeste 14 Sudoeste 0 902.1 -0.2 95
2019-04-02 00:00:00 7 0 Calma 12 Norte 0 902.3 0.3 94
2019-04-01 23:00:00 7.3 3 Noroeste 5 Noroeste 0 902.4 1.1 95
2019-04-01 22:00:00 7.7 0 Calma 15 Sudoeste 0 902.3 1.4 93
2019-04-01 21:00:00 8.5 2 Norte 12 Norte 0.4 902 1.2 91
2019-04-01 20:00:00 9.3 6 Norte 14 Norte 0 901.3 0.7 81
2019-04-01 19:00:00 10.3 8 Norte 21 Noroeste 0 900.9 0.3 72
2019-04-01 18:00:00 10.5 12 Noroeste 29 Noroeste 0 900.8 -0.2 69
2019-04-01 17:00:00 12.5 4 Noroeste 12 Noroeste 0 900.6 -1 60
2019-04-01 16:00:00 12.1 5 Noroeste 12 Noroeste 0 900.6 -1.5 65
2019-04-01 15:00:00 11.6 3 Norte 16 Noroeste 0 901 -1.3 66
2019-04-01 14:00:00 11.3 3 Noroeste 10 Norte 0 901.6 -0.5 66
2019-04-01 13:00:00 9.8 2 Norte 19 Norte 0.2 902.1 0.3 72
2019-04-01 12:00:00 8.8 11 Norte 22 Norte 0.2 902.3 0.6 76
2019-04-01 11:00:00 8.7 8 Norte 18 Norte 0 902.1 0.6 77
2019-04-01 10:00:00 8.1 8 Norte 15 Norte 0 901.8 0.9 83
2019-04-01 09:00:00 7.3 8 Norte 16 Noroeste 0 901.7 0.8 85
2019-04-01 08:00:00 6.8 5 Noroeste 16 Norte 0 901.5 0.4 84
2019-04-01 07:00:00 6.3 6 Norte 12 Noroeste 0 900.9 -0.4 80
2019-04-01 06:00:00 6.1 3 Noroeste 11 Sudoeste 0 900.9 -0.5 79
2019-04-01 05:00:00 5.7 3 Noroeste 9 Norte 0 901.1 -0.3 79
2019-04-01 04:00:00 6.4 8 Norte 17 Norte 0 901.3 -0.3 75
2019-04-01 03:00:00 5.4 2 Noroeste 4 Noroeste 0 901.4 -0.5 81
2019-04-01 02:00:00 5.7 2 Noroeste 14 Sudeste 0 901.4 -0.7 79
2019-04-01 01:00:00 6.6 0 Calma 4 Oeste 0 901.6 -0.3 75
2019-04-01 00:00:00 7 0 Calma 8 Norte 0 901.9 0.4 73
2019-03-31 23:00:00 7.2 3 Noroeste 8 Noroeste 0 902.1 1.4 73
2019-03-31 22:00:00 7.6 0 Calma 17 Sur 0 901.9 1.5 71
2019-03-31 21:00:00 9.3 3 Este 29 Sudeste 0 901.5 1.3 62
2019-03-31 20:00:00 10.6 8 Sudeste 27 Sudeste 0 900.7 0.5 52
2019-03-31 19:00:00 12 9 Sudeste 26 Sudeste 0 900.4 -0.3 48
2019-03-31 18:00:00 13.6 9 Sudeste 24 Este 0 900.2 -0.9 42
2019-03-31 17:00:00 14.9 11 Sudeste 24 Sur 0 900.2 -1.4 37
2019-03-31 16:00:00 14.8 10 Sudeste 31 Sur 0 900.7 -1.1 36
2019-03-31 15:00:00 15 12 Sudeste 28 Este 0 901.1 -1.3 33
2019-03-31 14:00:00 16.1 9 Sudeste 30 Este 0 901.6 -1.1 30
2019-03-31 13:00:00 14.1 10 Sudeste 25 Sur 0 901.8 -1 34
2019-03-31 12:00:00 13.5 9 Sudeste 26 Sur 0 902.4 -0.5 39
2019-03-31 11:00:00 10.8 8 Sudeste 23 Este 0 902.7 -0.5 44
2019-03-31 10:00:00 6.4 5 Sudeste 17 Sudeste 0 902.8 -0.6 59
2019-03-31 09:00:00 1.3 2 Norte 17 Oeste 0 902.9 -0.9 84
2019-03-31 08:00:00 0.5 4 Noroeste 13 Norte 0 903.2 -0.9 86
2019-03-31 07:00:00 0.3 5 Noroeste 15 Sudoeste 0 903.4 -1.4 88
2019-03-31 06:00:00 0.4 3 Oeste 12 Noroeste 0 903.8 -1.4 87
2019-03-31 05:00:00 1.2 4 Oeste 17 Sudoeste 0 904.1 -1.8 83
2019-03-31 03:00:00 2.4 5 Oeste 17 Norte 0 905.2 -1.6 80
2019-03-31 01:00:00 3 5 Noroeste 14 Sudoeste 0 905.9 -0.6 78
2019-03-31 00:00:00 3.3 0 Calma 9 Noroeste 0 906.6 0.5 76
2019-03-30 23:00:00 4.6 2 Sur 12 Sudoeste 0 906.8 1.7 72
2019-03-30 22:00:00 5.4 4 Norte 13 Oeste 0 906.5 1.9 68
2019-03-30 21:00:00 5.7 4 Noroeste 12 Sudoeste 0 906.1 1.8 66
2019-03-30 20:00:00 7.1 2 Noroeste 16 Este 0 905.1 1 62
2019-03-30 19:00:00 9.7 3 Noroeste 21 Este 0 904.6 0.1 52
2019-03-30 18:00:00 12.5 6 Sudeste 17 Sur 0 904.3 -0.5 38
2019-03-30 17:00:00 14.2 5 Sudeste 27 Sudeste 0 904.1 -1.2 33
2019-03-30 16:00:00 16.9 8 Sudeste 29 Este 0 904.5 -1.4 29
2019-03-30 15:00:00 17.1 11 Sudeste 30 Sur 0 904.8 -1.8 28
2019-03-30 14:00:00 17.2 11 Sudeste 31 Sudeste 0 905.3 -2.1 29
2019-03-30 13:00:00 16.6 10 Sudeste 31 Este 0 905.9 -1.9 31
2019-03-30 12:00:00 14.7 11 Sudeste 29 Este 0 906.6 -1.7 34
2019-03-30 11:00:00 13.4 9 Sudeste 27 Este 0 907.4 -1.6 38
2019-03-30 10:00:00 10.2 7 Sudeste 15 Este 0 907.8 -1.3 48
2019-03-30 09:00:00 6.9 3 Este 6 Sudeste 0 908.3 -0.8 61
2019-03-30 08:00:00 2.1 3 Noroeste 15 Norte 0 909 -0.3 82
2019-03-30 07:00:00 1.3 4 Oeste 17 Oeste 0 909.1 -0.6 84
2019-03-30 06:00:00 1.2 5 Noroeste 15 Norte 0 909.1 -1 86
2019-03-30 05:00:00 -0.2 0 Calma 5 Noroeste 0 909.3 -1.2 91
2019-03-30 04:00:00 0.2 0 Calma 6 Noroeste 0 909.7 -0.8 88
2019-03-30 03:00:00 0.7 0 Calma 5 Norte 0 910.1 -0.5 84
2019-03-30 02:00:00 1.5 3 Noroeste 5 Noroeste 0 910.5 -0.1 83
2019-03-30 01:00:00 2.4 2 Norte 13 Sudoeste 0 910.5 0 77
2019-03-30 00:00:00 4 2 Noroeste 9 Este 0 910.6 0.3 72
2019-03-29 23:00:00 7.3 5 Sudeste 21 Sudeste 0 910.6 0.6 57
2019-03-29 22:00:00 8.3 5 Sudeste 22 Este 0 910.5 1 55
2019-03-29 21:00:00 7 2 Este 8 Noroeste 0 910.3 1 66
2019-03-29 20:00:00 7.3 2 Norte 5 Norte 0 910 0.6 64
2019-03-29 19:00:00 9.1 2 Noroeste 5 Sudeste 0 909.5 -0.3 58
2019-03-29 18:00:00 11.8 4 Sur 14 Este 0 909.3 -1 42
2019-03-29 17:00:00 12.8 5 Sudeste 12 Sur 0 909.4 -1.4 37
2019-03-29 16:00:00 12.7 4 Sudeste 16 Sur 0 909.8 -1.5 37
2019-03-29 15:00:00 12.4 8 Sudeste 19 Sur 0 910.3 -1 38
2019-03-29 14:00:00 12.2 6 Sudeste 26 Sur 0 910.8 -0.9 39
2019-03-29 13:00:00 12.1 7 Sudeste 27 Sudeste 0 911.3 -0.8 38
2019-03-29 12:00:00 12.4 7 Sudeste 30 Sur 0 911.3 -1 39
2019-03-29 11:00:00 11.8 4 Sur 16 Sudeste 0 911.7 -0.6 43
2019-03-29 10:00:00 9.2 3 Sudeste 7 Sudeste 0 912.1 -0.1 51
2019-03-29 09:00:00 7.6 2 Sur 19 Norte 0 912.3 0.3 61
2019-03-29 08:00:00 5.6 6 Noroeste 12 Noroeste 0 912.3 0.4 71
2019-03-29 07:00:00 3.9 0 Calma 10 Norte 0 912.2 0.3 77
2019-03-29 06:00:00 3.9 5 Noroeste 11 Norte 0 912 0 76
2019-03-29 05:00:00 3.7 0 Calma 6 Noroeste 0 911.9 -0.2 76
2019-03-29 04:00:00 4.3 3 Norte 8 Noroeste 0 911.9 -0.5 72
2019-03-29 03:00:00 3.7 2 Noroeste 15 Sudoeste 0 912 -0.3 73
2019-03-29 02:00:00 4.3 5 Noroeste 18 Norte 0 912.1 0 70
2019-03-29 01:00:00 2.4 5 Noroeste 9 Noroeste 0 912.4 0.4 78
2019-03-29 00:00:00 3 3 Noroeste 17 Oeste 0 912.3 0.7 74
2019-03-28 23:00:00 4 4 Noroeste 13 Sudoeste 0 912.1 1.2 70
2019-03-28 22:00:00 5.2 6 Noroeste 12 Noroeste 0 912 1.7 65
2019-03-28 21:00:00 5.7 4 Noroeste 8 Oeste 0 911.6 1.9 65
2019-03-28 20:00:00 6.9 3 Noroeste 14 Nordeste 0 910.9 1.6 62
2019-03-28 19:00:00 8.7 2 Noroeste 9 Sudoeste 0 910.3 1.2 55
2019-03-28 18:00:00 12.3 4 Sur 25 Sur 0 909.7 0.5 42
2019-03-28 17:00:00 13.5 9 Sudeste 28 Sur 0 909.3 -0.3 38
2019-03-28 16:00:00 16.6 13 Sudeste 33 Sudeste 0 909.1 -1 31
2019-03-28 15:00:00 17.6 10 Sudeste 33 Sur 0 909.2 -1.5 27
2019-03-28 14:00:00 17.7 12 Sudeste 31 Sudeste 0 909.6 -1.6 25
2019-03-28 13:00:00 16.9 13 Sudeste 34 Sudeste 0 910.1 -1.7 24
2019-03-28 12:00:00 15.9 10 Sudeste 31 Sur 0 910.7 -1.5 27
2019-03-28 11:00:00 13.9 10 Sudeste 26 Sur 0 911.2 -1.4 28
2019-03-28 10:00:00 10 6 Sudeste 14 Sudeste 0 911.8 -0.7 32
2019-03-28 09:00:00 5.2 3 Este 6 Este 0 912.2 -0.1 42
2019-03-28 08:00:00 -0.9 2 Sur 18 Oeste 0 912.6 0.5 68
2019-03-28 07:00:00 -1.4 3 Noroeste 14 Nordeste 0 912.5 0.4 70
2019-03-28 06:00:00 -1.3 3 Noroeste 9 Noroeste 0 912.3 0.3 71
2019-03-28 05:00:00 -0.8 4 Noroeste 14 Nordeste 0 912.1 0 67
2019-03-28 04:00:00 0.4 4 Oeste 19 Noroeste 0 912.1 0.1 63
2019-03-28 03:00:00 0.2 4 Noroeste 14 Nordeste 0 912 0 65
2019-03-28 02:00:00 1.1 0 Calma 12 Oeste 0 912.1 0.4 62
2019-03-28 01:00:00 2.2 2 Noroeste 14 Noroeste 0 912 0.6 56
2019-03-28 00:00:00 3.9 6 Norte 28 Norte 0 912 0.7 48
2019-03-27 23:00:00 6.8 10 Norte 41 Noroeste 0 911.7 0.6 37
2019-03-27 22:00:00 7.4 22 Noroeste 37 Noroeste 0 911.4 1.3 36
2019-03-27 21:00:00 8.7 12 Noroeste 31 Noroeste 0 911.3 2.2 33
2019-03-27 20:00:00 9.4 14 Noroeste 28 Noroeste 0 911.1 2.5 31
2019-03-27 19:00:00 10.6 14 Noroeste 31 Noroeste 0 910.1 1.7 25
2019-03-27 18:00:00 12 15 Noroeste 31 Noroeste 0 909.1 0.7 21
2019-03-27 17:00:00 13.3 14 Noroeste 37 Noroeste 0 908.6 0.3 17
2019-03-27 16:00:00 15.7 14 Noroeste 38 Noroeste 0 908.4 -0.1 14
2019-03-27 15:00:00 16.2 19 Noroeste 47 Noroeste 0 908.4 0 12
2019-03-27 14:00:00 16.5 18 Noroeste 46 Noroeste 0 908.3 -0.5 11
2019-03-27 13:00:00 15.6 24 Noroeste 54 Noroeste 0 908.5 -0.3 10
2019-03-27 12:00:00 15.2 25 Noroeste 49 Noroeste 0 908.4 -0.4 11
2019-03-27 11:00:00 14.9 21 Noroeste 43 Noroeste 0 908.8 -0.4 11
2019-03-27 10:00:00 13.5 19 Noroeste 40 Noroeste 0 908.8 -0.3 9
2019-03-27 09:00:00 10.9 13 Noroeste 26 Noroeste 0 908.8 -0.2 8
2019-03-27 08:00:00 -0.1 3 Sudeste 9 Norte 0 909.2 0.6 42
2019-03-27 07:00:00 -1.1 2 Sudeste 14 Sudoeste 0 909.1 0.9 44
2019-03-27 06:00:00 -1 2 Sudeste 5 Norte 0 909 0.2 48
2019-03-27 05:00:00 0.4 3 Noroeste 13 Sudeste 0 908.6 -0.7 37
2019-03-27 04:00:00 1.4 4 Sur 19 Noroeste 0 908.2 -1.1 29
2019-03-27 03:00:00 0.5 3 Norte 14 Nordeste 0 908.8 -0.2 38
2019-03-27 02:00:00 2.1 2 Noroeste 15 Noroeste 0 909.3 0.5 28
2019-03-27 01:00:00 4.6 3 Sudoeste 30 Noroeste 0 909.3 0.7 20
2019-03-27 00:00:00 6.8 13 Noroeste 37 Noroeste 0 909 0.4 15
2019-03-26 23:00:00 7.4 13 Noroeste 29 Noroeste 0 908.8 0.8 13
2019-03-26 22:00:00 8.9 15 Noroeste 40 Noroeste 0 908.6 1.1 11
2019-03-26 21:00:00 9.2 19 Noroeste 50 Noroeste 0 908.6 1.3 12
2019-03-26 20:00:00 9.9 21 Noroeste 65 Noroeste 0 908 1 10
2019-03-26 19:00:00 10.3 18 Noroeste 47 Noroeste 0 907.5 0.7 12
2019-03-26 18:00:00 11.1 18 Noroeste 52 Noroeste 0 907.3 0.6 12
2019-03-26 17:00:00 11.9 18 Oeste 47 Noroeste 0 907 0.2 10
2019-03-26 16:00:00 14.4 21 Noroeste 51 Noroeste 0 906.8 -0.2 10
2019-03-26 15:00:00 15.3 22 Noroeste 61 Oeste 0 906.7 -0.8 8
2019-03-26 14:00:00 15.4 21 Noroeste 58 Noroeste 0 906.8 -1.3 6
2019-03-26 13:00:00 15.2 22 Noroeste 67 Noroeste 0 907 -0.9 7
2019-03-26 12:00:00 13.6 29 Noroeste 62 Noroeste 0 907.5 -0.5 7
2019-03-26 11:00:00 12.7 28 Noroeste 68 Noroeste 0 908.1 0 6
2019-03-26 10:00:00 11.3 30 Noroeste 71 Noroeste 0 907.9 0.3 6
2019-03-26 09:00:00 9.7 31 Noroeste 64 Noroeste 0 908 0.6 6
2019-03-26 08:00:00 7.6 25 Noroeste 56 Noroeste 0 908.1 1.1 7
2019-03-26 07:00:00 6.6 20 Noroeste 50 Noroeste 0 907.6 1 10
2019-03-26 06:00:00 5.8 23 Noroeste 58 Noroeste 0 907.4 0.6 14
2019-03-26 05:00:00 5.6 22 Noroeste 49 Noroeste 0 907 -0.2 23
2019-03-26 04:00:00 6.9 22 Noroeste 47 Noroeste 0 906.6 -1.2 24
2019-03-26 03:00:00 4.9 19 Noroeste 37 Noroeste 0 906.8 -1.5 41
2019-03-26 02:00:00 5.5 17 Noroeste 31 Noroeste 0 907.2 -1.2 42
2019-03-26 01:00:00 6.3 14 Noroeste 38 Noroeste 0 907.8 -0.4 43
2019-03-26 00:00:00 6.9 15 Noroeste 44 Noroeste 0 908.3 0.4 43
2019-03-25 23:00:00 7.3 18 Noroeste 40 Noroeste 0 908.4 1 41
2019-03-25 22:00:00 7.5 16 Noroeste 41 Noroeste 0 908.2 1.7 41
2019-03-25 21:00:00 7.9 16 Noroeste 36 Noroeste 0 907.9 1.8 40
2019-03-25 20:00:00 8.7 16 Noroeste 42 Noroeste 0 907.4 1.4 38
2019-03-25 19:00:00 9.8 18 Noroeste 36 Noroeste 0 906.5 0.5 34
2019-03-25 18:00:00 11.2 17 Noroeste 39 Noroeste 0 906.1 0.1 27
2019-03-25 17:00:00 12.3 16 Noroeste 44 Noroeste 0 906 -0.4 22
2019-03-25 16:00:00 14.6 22 Noroeste 45 Noroeste 0 906 -0.5 19
2019-03-25 15:00:00 15.8 18 Noroeste 39 Noroeste 0 906 -0.5 13
2019-03-25 14:00:00 16.3 17 Oeste 48 Noroeste 0 906.4 -0.3 18
2019-03-25 13:00:00 16.6 23 Noroeste 47 Noroeste 0 906.5 -0.3 18
2019-03-25 12:00:00 17.2 17 Noroeste 39 Noroeste 0 906.5 -0.7 12
2019-03-25 11:00:00 16.4 19 Noroeste 34 Noroeste 0 906.7 -0.8 20
2019-03-25 10:00:00 14.3 12 Noroeste 26 Noroeste 0 906.8 -0.9 28
2019-03-25 09:00:00 8.1 5 Noroeste 8 Noroeste 0 907.2 -0.6 53
2019-03-25 08:00:00 2.5 0 Calma 19 Noroeste 0 907.5 -0.5 78
2019-03-25 07:00:00 1.9 2 Noroeste 11 Noroeste 0 907.7 -0.7 81
2019-03-25 06:00:00 2.5 6 Oeste 14 Noroeste 0 907.8 -1 77
2019-03-25 05:00:00 2.7 6 Noroeste 17 Sudoeste 0 908 -1.2 76
2019-03-25 04:00:00 3.3 5 Noroeste 14 Sudoeste 0 908.4 -1.1 74
2019-03-25 03:00:00 4 5 Noroeste 15 Noroeste 0 908.8 -1 71
2019-03-25 02:00:00 4.9 5 Noroeste 18 Norte 0 909.2 -0.8 67
2019-03-25 01:00:00 6.3 5 Noroeste 17 Norte 0 909.5 -0.6 61
2019-03-25 00:00:00 7.9 7 Norte 22 Noroeste 0 909.8 0 56